createdAt,value
2022-10-17T00:01:07.174Z,16.90
2022-10-17T00:03:46.506Z,12.95
2022-10-17T00:06:22.392Z,11.75
2022-10-17T00:09:15.792Z,14.23
2022-10-17T00:12:02.260Z,10.05
2022-10-17T00:14:57.041Z,17.30
2022-10-17T00:17:43.334Z,14.23
2022-10-17T00:20:25.372Z,11.20
2022-10-17T00:23:01.178Z,14.68
2022-10-17T00:25:59.491Z,13.58
2022-10-17T00:28:56.140Z,12.70
2022-10-17T00:31:39.206Z,13.48
2022-10-17T00:34:31.425Z,15.63
2022-10-17T00:37:30.421Z,11.00
2022-10-17T00:40:11.389Z,9.18
2022-10-17T00:42:53.306Z,11.63
2022-10-17T00:45:30.407Z,9.38
2022-10-17T00:48:03.641Z,11.05
2022-10-17T00:50:34.211Z,11.65
2022-10-17T00:53:04.305Z,11.20
2022-10-17T00:55:36.320Z,12.50
2022-10-17T00:58:06.302Z,10.68
2022-10-17T01:00:34.386Z,13.90
2022-10-17T01:03:02.316Z,14.28
2022-10-17T01:05:30.353Z,15.13
2022-10-17T01:08:00.240Z,10.80
2022-10-17T01:10:39.357Z,13.08
2022-10-17T01:13:15.206Z,11.43
2022-10-17T01:16:15.805Z,12.37
2022-10-17T01:18:58.665Z,10.55
2022-10-17T01:21:46.543Z,11.90
2022-10-17T01:24:39.244Z,13.95
2022-10-17T01:27:18.254Z,10.48
2022-10-17T01:30:27.739Z,12.85
2022-10-17T01:33:18.728Z,13.70
2022-10-17T01:36:12.953Z,15.93
2022-10-17T01:39:14.933Z,13.55
2022-10-17T01:41:57.711Z,15.13
2022-10-17T01:44:46.395Z,19.17
2022-10-17T01:47:19.377Z,14.85
2022-10-17T01:49:51.773Z,14.30
2022-10-17T01:52:36.561Z,23.75
2022-10-17T01:55:11.920Z,14.85
2022-10-17T01:57:48.047Z,15.98
2022-10-17T02:00:21.579Z,12.53
2022-10-17T02:02:56.457Z,14.45
2022-10-17T02:05:29.325Z,14.00
2022-10-17T02:07:57.537Z,14.13
2022-10-17T02:10:49.411Z,13.88
2022-10-17T02:13:28.652Z,14.30
2022-10-17T02:16:05.287Z,16.30
2022-10-17T02:18:58.741Z,26.25
2022-10-17T02:21:44.198Z,16.10
2022-10-17T02:24:41.758Z,13.03
2022-10-17T02:27:37.802Z,12.85
2022-10-17T02:30:24.073Z,16.73
2022-10-17T02:33:11.690Z,13.88
2022-10-17T02:35:45.272Z,16.62
2022-10-17T02:38:16.689Z,13.80
2022-10-17T02:41:01.166Z,13.28
2022-10-17T02:44:27.313Z,13.10
2022-10-17T02:47:06.177Z,14.63
2022-10-17T02:49:41.332Z,13.08
2022-10-17T02:52:33.529Z,10.93
2022-10-17T02:55:17.787Z,13.43
2022-10-17T02:58:13.537Z,14.63
2022-10-17T03:00:47.821Z,11.63
2022-10-17T03:03:30.761Z,12.40
2022-10-17T03:06:02.625Z,10.90
2022-10-17T03:08:36.104Z,13.32
2022-10-17T03:11:48.763Z,10.45
2022-10-17T03:14:40.377Z,11.00
2022-10-17T03:17:25.897Z,17.10
2022-10-17T03:19:54.033Z,12.33
2022-10-17T03:22:22.083Z,8.95
2022-10-17T03:24:50.373Z,10.55
2022-10-17T03:27:18.473Z,19.45
2022-10-17T03:29:46.766Z,7.95
2022-10-17T03:32:15.961Z,10.15
2022-10-17T03:34:44.188Z,11.83
2022-10-17T03:37:12.305Z,7.75
2022-10-17T03:39:40.743Z,9.55
2022-10-17T03:42:09.116Z,12.80
2022-10-17T03:44:37.810Z,13.25
2022-10-17T03:47:08.159Z,11.03
2022-10-17T03:49:35.697Z,16.82
2022-10-17T03:52:03.709Z,17.75
2022-10-17T03:54:31.853Z,27.10
2022-10-17T03:57:02.501Z,20.55
2022-10-17T03:59:36.198Z,16.57
2022-10-17T04:02:06.135Z,15.05
2022-10-17T04:04:37.504Z,14.70
2022-10-17T04:13:36.870Z,16.35
2022-10-17T04:16:10.124Z,11.65
2022-10-17T04:18:40.446Z,14.37
2022-10-17T04:21:11.072Z,12.98
2022-10-17T04:23:39.670Z,13.55
2022-10-17T04:26:09.479Z,18.57
2022-10-17T04:31:10.064Z,24.15
2022-10-17T04:33:40.545Z,24.33
2022-10-17T04:36:16.267Z,23.20
2022-10-17T04:38:44.020Z,17.80
2022-10-17T04:41:16.750Z,14.30
2022-10-17T04:43:48.484Z,17.20
2022-10-17T04:46:16.085Z,13.40
2022-10-17T04:48:45.612Z,13.55
2022-10-17T04:51:18.797Z,12.65
2022-10-17T04:54:07.236Z,16.37
2022-10-17T04:56:36.555Z,14.47
2022-10-17T04:59:04.418Z,15.48
2022-10-17T05:01:33.654Z,14.83
2022-10-17T05:04:01.499Z,17.15
2022-10-17T05:06:31.076Z,11.93
2022-10-17T05:09:12.871Z,15.88
2022-10-17T05:11:43.147Z,12.20
2022-10-17T05:14:11.397Z,12.73
2022-10-17T05:16:39.462Z,13.90
2022-10-17T05:19:11.055Z,11.45
2022-10-17T05:21:41.150Z,12.40
2022-10-17T05:24:11.685Z,13.85
2022-10-17T05:26:40.875Z,12.82
2022-10-17T05:29:13.934Z,11.05
2022-10-17T05:31:44.135Z,13.03
2022-10-17T05:38:35.920Z,10.18
2022-10-17T05:41:10.107Z,19.05
2022-10-17T05:43:41.303Z,13.98
2022-10-17T05:46:10.304Z,12.03
2022-10-17T05:49:19.436Z,9.25
2022-10-17T05:52:12.881Z,11.03
2022-10-17T05:54:49.043Z,11.12
2022-10-17T06:03:54.837Z,15.25
2022-10-17T06:06:29.222Z,10.40
2022-10-17T06:09:01.147Z,9.80
2022-10-17T06:11:46.720Z,10.43
2022-10-17T06:14:44.684Z,12.93
2022-10-17T06:17:22.355Z,10.53
2022-10-17T06:22:54.239Z,9.53
2022-10-17T06:25:24.161Z,14.50
2022-10-17T06:30:22.584Z,16.87
2022-10-17T06:32:53.517Z,13.85
2022-10-17T06:35:21.961Z,16.60
2022-10-17T06:37:50.059Z,12.73
2022-10-17T06:40:18.826Z,15.18
2022-10-17T06:42:47.548Z,10.35
2022-10-17T06:45:26.230Z,14.98
2022-10-17T06:48:02.768Z,10.98
2022-10-17T06:50:44.383Z,7.97
2022-10-17T06:53:18.291Z,12.05
2022-10-17T06:55:54.940Z,11.70
2022-10-17T06:58:42.118Z,10.45
2022-10-17T07:01:13.473Z,17.12
2022-10-17T07:03:43.227Z,13.53
2022-10-17T07:06:11.385Z,13.30
2022-10-17T07:08:45.559Z,10.65
2022-10-17T07:11:18.721Z,20.97
2022-10-17T07:13:48.336Z,13.88
2022-10-17T07:16:16.825Z,8.08
2022-10-17T07:18:51.813Z,11.88
2022-10-17T07:21:20.650Z,24.90
2022-10-17T07:23:48.589Z,17.25
2022-10-17T07:26:18.466Z,16.40
2022-10-17T07:28:51.263Z,8.78
2022-10-17T07:31:26.734Z,14.07
2022-10-17T07:33:54.953Z,14.98
2022-10-17T07:36:23.422Z,14.70
2022-10-17T07:38:52.514Z,12.18
2022-10-17T07:41:21.934Z,14.90
2022-10-17T07:43:50.809Z,12.73
2022-10-17T07:46:20.531Z,14.47
2022-10-17T07:48:48.636Z,13.83
2022-10-17T07:51:19.387Z,13.75
2022-10-17T07:53:48.903Z,15.65
2022-10-17T07:56:17.470Z,12.50
2022-10-17T07:58:45.636Z,14.03
2022-10-17T08:01:15.391Z,9.50
2022-10-17T08:03:45.593Z,9.70
2022-10-17T08:06:13.656Z,11.83
2022-10-17T08:08:42.546Z,12.85
2022-10-17T08:11:13.606Z,7.65
2022-10-17T08:13:41.941Z,12.40
2022-10-17T08:16:13.097Z,11.40
2022-10-17T08:18:43.425Z,11.05
2022-10-17T08:21:12.879Z,14.33
2022-10-17T08:23:41.097Z,12.80
2022-10-17T08:26:12.417Z,13.88
2022-10-17T08:28:41.067Z,11.25
2022-10-17T08:31:18.275Z,11.20
2022-10-17T08:33:48.338Z,10.45
2022-10-17T08:36:20.501Z,15.80
2022-10-17T08:38:52.584Z,13.08
2022-10-17T08:41:48.598Z,13.60
2022-10-17T08:44:57.283Z,11.00
2022-10-17T08:47:32.563Z,11.10
2022-10-17T08:50:05.717Z,12.23
2022-10-17T08:53:06.301Z,9.13
2022-10-17T08:55:49.521Z,9.58
2022-10-17T08:58:29.721Z,12.60
2022-10-17T09:01:12.928Z,12.63
2022-10-17T09:04:10.175Z,11.83
2022-10-17T09:06:46.478Z,7.67
2022-10-17T09:09:22.825Z,10.80
2022-10-17T09:11:59.481Z,15.38
2022-10-17T09:15:22.162Z,7.37
2022-10-17T09:18:13.203Z,9.78
2022-10-17T09:20:49.469Z,15.20
2022-10-17T09:23:22.801Z,8.10
2022-10-17T09:25:59.096Z,13.70
2022-10-17T09:28:38.141Z,11.30
2022-10-17T09:31:20.531Z,9.58
2022-10-17T09:33:55.340Z,12.40
2022-10-17T09:36:37.189Z,11.60
2022-10-17T09:39:19.440Z,8.68
2022-10-17T09:41:56.696Z,9.68
2022-10-17T09:44:45.230Z,10.00
2022-10-17T09:47:47.625Z,11.28
2022-10-17T09:50:24.359Z,24.55
2022-10-17T09:52:59.186Z,9.73
2022-10-17T09:55:42.477Z,8.28
2022-10-17T09:58:15.616Z,8.60
2022-10-17T10:01:01.890Z,6.65
2022-10-17T10:06:43.759Z,13.18
2022-10-17T10:09:39.471Z,10.93
2022-10-17T10:12:55.372Z,7.65
2022-10-17T10:19:40.039Z,10.43
2022-10-17T10:22:38.811Z,11.80
2022-10-17T10:25:19.579Z,10.75
2022-10-17T13:11:55.548Z,8.73
2022-10-17T13:14:57.825Z,10.03
2022-10-17T13:18:43.979Z,6.62
2022-10-17T13:39:55.681Z,5.90
2022-10-17T13:42:30.364Z,6.83
2022-10-17T13:45:02.942Z,7.08
2022-10-17T13:47:42.425Z,12.15
2022-10-17T13:50:44.233Z,9.73
2022-10-17T13:59:56.186Z,10.55
2022-10-17T14:02:28.791Z,7.42
2022-10-17T14:05:18.779Z,10.53
2022-10-17T14:15:29.944Z,9.30
2022-10-17T14:18:21.317Z,11.83
2022-10-17T14:28:36.465Z,10.75
2022-10-17T14:51:56.965Z,13.08
2022-10-17T15:04:45.000Z,11.55
2022-10-17T15:07:18.369Z,13.60
2022-10-17T15:09:52.368Z,14.18
2022-10-17T15:12:25.490Z,42.00
2022-10-17T15:14:55.648Z,75.67
2022-10-17T15:17:31.578Z,69.12
2022-10-17T15:20:01.639Z,55.03
2022-10-17T15:22:34.349Z,64.95
2022-10-17T15:28:42.510Z,48.28
2022-10-17T15:31:16.776Z,61.23
2022-10-17T15:33:55.071Z,86.85
2022-10-17T15:36:41.144Z,106.70
2022-10-17T15:39:12.653Z,108.05
2022-10-17T15:41:43.784Z,166.75
2022-10-17T15:44:12.002Z,168.25
2022-10-17T15:46:41.131Z,140.30
2022-10-17T15:49:15.017Z,140.00
2022-10-17T15:51:43.280Z,126.18
2022-10-17T15:54:14.036Z,92.00
2022-10-17T15:56:43.463Z,93.37
2022-10-17T15:59:33.481Z,82.82
2022-10-17T16:02:33.408Z,83.80
2022-10-17T16:08:05.128Z,69.80
2022-10-17T16:10:44.602Z,61.80
2022-10-17T16:13:26.522Z,56.92
2022-10-17T16:16:01.814Z,50.70
2022-10-17T16:22:47.569Z,44.08
2022-10-17T16:25:40.046Z,44.80
2022-10-17T16:28:17.990Z,38.95
2022-10-17T16:30:50.522Z,38.02
2022-10-17T16:33:18.465Z,54.88
2022-10-17T16:35:49.646Z,38.48
2022-10-17T16:38:20.234Z,43.60
2022-10-17T16:40:51.647Z,46.42
2022-10-17T16:43:19.711Z,60.78
2022-10-17T16:45:47.914Z,55.33
2022-10-17T16:48:17.177Z,55.03
2022-10-17T16:50:45.356Z,64.85
2022-10-17T16:53:13.259Z,47.80
2022-10-17T16:55:44.889Z,49.30
2022-10-17T16:58:17.416Z,45.38
2022-10-17T17:00:45.551Z,48.23
2022-10-17T17:03:13.603Z,55.95
2022-10-17T17:05:41.836Z,52.60
2022-10-17T17:08:25.959Z,61.58
2022-10-17T17:11:38.815Z,63.85
2022-10-17T17:14:10.535Z,62.88
2022-10-17T17:20:17.031Z,43.70
2022-10-17T17:22:56.669Z,40.17
2022-10-17T17:25:24.975Z,39.20
2022-10-17T17:27:52.903Z,36.83
2022-10-17T17:30:20.729Z,34.38
2022-10-17T17:32:48.452Z,33.98
2022-10-17T17:35:16.173Z,31.85
2022-10-17T17:37:45.804Z,36.35
2022-10-17T17:40:13.696Z,37.28
2022-10-17T17:42:47.305Z,49.63
2022-10-17T17:45:15.891Z,43.17
2022-10-17T17:47:43.413Z,49.67
2022-10-17T17:50:11.299Z,42.38
2022-10-17T17:52:46.658Z,40.83
2022-10-17T17:55:14.907Z,44.33
2022-10-17T17:57:42.937Z,40.67
2022-10-17T18:00:15.849Z,44.08
2022-10-17T18:02:45.460Z,51.42
2022-10-17T18:05:14.055Z,54.38
2022-10-17T18:07:42.094Z,54.13
2022-10-17T18:12:40.490Z,54.38
2022-10-17T18:15:09.047Z,58.45
2022-10-17T18:17:38.934Z,49.85
2022-10-17T18:20:08.225Z,53.10
2022-10-17T18:22:36.184Z,52.93
2022-10-17T18:25:06.070Z,55.63
2022-10-17T18:27:33.873Z,56.35
2022-10-17T18:30:01.535Z,61.50
2022-10-17T18:32:33.663Z,65.25
2022-10-17T18:35:01.746Z,66.70
2022-10-17T18:37:29.885Z,62.73
2022-10-17T18:39:58.164Z,54.95
2022-10-17T18:42:26.041Z,59.03
2022-10-17T18:44:53.959Z,58.52
2022-10-17T18:47:24.766Z,57.50
2022-10-17T18:49:53.058Z,54.08
2022-10-17T18:52:20.546Z,53.90
2022-10-17T18:54:48.518Z,56.45
2022-10-17T18:57:21.474Z,60.40
2022-10-17T18:59:49.023Z,62.43
2022-10-17T19:02:16.790Z,57.70
2022-10-17T19:04:44.956Z,59.25
2022-10-17T19:07:12.560Z,60.95
2022-10-17T19:09:40.275Z,61.10
2022-10-17T19:12:08.167Z,67.90
2022-10-17T19:14:38.170Z,67.00
2022-10-17T19:17:06.045Z,61.75
2022-10-17T19:19:34.572Z,68.07
2022-10-17T19:22:03.707Z,56.58
2022-10-17T19:24:31.614Z,63.48
2022-10-17T19:27:01.908Z,55.90
2022-10-17T19:29:31.374Z,44.45
2022-10-17T19:32:00.463Z,48.28
2022-10-17T19:34:28.705Z,50.38
2022-10-17T19:36:56.844Z,43.70
2022-10-17T19:39:26.015Z,47.17
2022-10-17T19:41:53.701Z,52.48
2022-10-17T19:44:21.462Z,44.98
2022-10-17T19:46:49.537Z,50.83
2022-10-17T19:49:17.851Z,48.10
2022-10-17T19:51:45.812Z,51.25
2022-10-17T19:54:14.701Z,47.73
2022-10-17T19:56:42.904Z,51.05
2022-10-17T19:59:14.714Z,54.73
2022-10-17T20:01:43.173Z,45.58
2022-10-17T20:04:12.300Z,43.63
2022-10-17T20:06:41.305Z,41.42
2022-10-17T20:09:13.957Z,41.42
2022-10-17T20:11:40.560Z,39.38
2022-10-17T20:14:08.620Z,41.63
2022-10-17T20:16:36.729Z,40.43
2022-10-17T20:19:08.974Z,37.48
2022-10-17T20:21:39.043Z,46.55
2022-10-17T20:24:11.737Z,38.42
2022-10-17T20:26:40.716Z,43.30
2022-10-17T20:29:16.612Z,43.52
2022-10-17T20:31:45.980Z,40.23
2022-10-17T20:34:16.186Z,40.55
2022-10-17T20:36:44.218Z,38.85
2022-10-17T20:39:14.392Z,33.40
2022-10-17T20:41:43.156Z,35.33
2022-10-17T20:44:12.090Z,36.58
2022-10-17T20:46:45.217Z,40.88
2022-10-17T20:49:14.625Z,35.23
2022-10-17T20:51:42.555Z,38.55
2022-10-17T20:54:11.312Z,40.38
2022-10-17T20:56:39.297Z,40.58
2022-10-17T20:59:11.837Z,43.08
2022-10-17T21:01:40.106Z,36.80
2022-10-17T21:04:40.594Z,39.70
2022-10-17T21:06:37.986Z,39.58
2022-10-17T21:09:06.876Z,31.35
2022-10-17T21:11:34.588Z,36.40
2022-10-17T21:14:05.640Z,30.85
2022-10-17T21:16:36.192Z,33.20
2022-10-17T21:19:05.655Z,26.65
2022-10-17T21:21:37.093Z,29.63
2022-10-17T21:24:11.534Z,26.82
2022-10-17T21:26:40.904Z,29.07
2022-10-17T21:29:13.281Z,29.75
2022-10-17T21:31:43.752Z,32.10
2022-10-17T21:34:21.443Z,31.80
2022-10-17T21:36:49.383Z,29.95
2022-10-17T21:39:17.844Z,31.82
2022-10-17T21:41:45.656Z,33.13
2022-10-17T21:44:20.778Z,33.33
2022-10-17T21:49:20.348Z,40.48
2022-10-17T21:51:48.604Z,34.25
2022-10-17T21:54:18.436Z,29.75
2022-10-17T21:56:46.662Z,28.57
2022-10-17T21:59:14.355Z,28.47
2022-10-17T22:01:45.059Z,35.80
2022-10-17T22:04:16.834Z,38.50
2022-10-17T22:06:46.743Z,28.40
2022-10-17T22:09:19.912Z,43.10
2022-10-17T22:11:52.553Z,40.55
2022-10-17T22:14:24.121Z,34.45
2022-10-17T22:16:52.553Z,31.80
2022-10-17T22:19:24.483Z,29.40
2022-10-17T22:21:52.787Z,23.22
2022-10-17T22:26:48.939Z,25.35
2022-10-17T22:29:17.249Z,27.52
2022-10-17T22:31:45.369Z,24.35
2022-10-17T22:34:15.875Z,21.70
2022-10-17T22:36:44.202Z,26.10
2022-10-17T22:39:12.341Z,30.20
2022-10-17T22:41:40.354Z,24.43
2022-10-17T22:44:08.269Z,22.93
2022-10-17T22:46:36.301Z,22.80
2022-10-17T22:49:04.175Z,22.20
2022-10-17T22:51:32.070Z,20.90
2022-10-17T22:54:00.207Z,21.00
2022-10-17T22:56:28.035Z,18.70
2022-10-17T22:58:55.953Z,20.05
2022-10-17T23:01:25.473Z,20.65
2022-10-17T23:03:53.311Z,21.23
2022-10-17T23:06:21.637Z,24.52
2022-10-17T23:08:49.806Z,18.92
2022-10-17T23:11:17.941Z,17.67
2022-10-17T23:13:45.710Z,18.12
2022-10-17T23:16:13.848Z,19.92
2022-10-17T23:18:43.173Z,19.42
2022-10-17T23:21:11.452Z,17.45
2022-10-17T23:23:38.788Z,18.60
2022-10-17T23:26:10.645Z,16.07
2022-10-17T23:28:39.485Z,20.75
2022-10-17T23:31:16.406Z,15.98
2022-10-17T23:33:47.919Z,17.77
2022-10-17T23:36:20.385Z,18.25
2022-10-17T23:38:48.943Z,19.27
2022-10-17T23:41:17.201Z,18.02
2022-10-17T23:43:45.225Z,20.68
2022-10-17T23:46:13.561Z,20.90
2022-10-17T23:48:41.592Z,18.45
2022-10-17T23:51:10.416Z,19.70
2022-10-17T23:53:39.335Z,15.85
2022-10-17T23:56:09.407Z,16.40
2022-10-17T23:58:38.696Z,18.07
